Time;durP1;ratioP1;P1;durP2;ratioP2;P2;SDS_P1;SDS_P2;PMS_P1;PMS_P2;Temp;Humidity;BMP_temperature;BMP_pressure;BME280_temperature;BME280_humidity;BME280_pressure;Samples;Min_cycle;Max_cycle;Signal;HPM_P1;HPM_P2
2022/08/09 00:00:09;;;;;;;2.63;2.13;;;;;;;;;;506956;29;1234;-94
2022/08/09 00:00:25;;;;;;;3.03;2.13;;;;;;;;;;504770;29;1398;-94
2022/08/09 00:00:40;;;;;;;2.67;2.22;;;;;;;;;;504870;29;1289;-93
2022/08/09 00:00:56;;;;;;;2.83;2.37;;;;;;;;;;504977;29;853;-94
2022/08/09 00:01:11;;;;;;;3.15;2.30;;;;;;;;;;506872;29;1257;-93
2022/08/09 00:01:26;;;;;;;3.07;2.33;;;;;;;;;;508666;29;1298;-94
2022/08/09 00:01:47;;;;;;;3.50;2.40;;;;;;;;;;509186;29;1020;-94
2022/08/09 00:02:05;;;;;;;2.90;2.35;;;;;;;;;;510911;29;972;-94
2022/08/09 00:02:20;;;;;;;2.90;2.50;;;;;;;;;;510222;29;1306;-93
2022/08/09 00:02:36;;;;;;;3.50;2.67;;;;;;;;;;510834;29;1191;-92
2022/08/09 00:02:51;;;;;;;3.28;2.53;;;;;;;;;;508891;29;1303;-93
2022/08/09 00:03:07;;;;;;;4.10;2.50;;;;;;;;;;505621;29;1273;-94
2022/08/09 00:03:22;;;;;;;3.80;2.50;;;;;;;;;;506967;29;1192;-93
2022/08/09 00:03:37;;;;;;;3.17;2.40;;;;;;;;;;508929;29;1413;-94
2022/08/09 00:03:53;;;;;;;3.60;2.40;;;;;;;;;;508676;29;1347;-94
2022/08/09 00:04:09;;;;;;;2.92;2.50;;;;;;;;;;508889;29;1024;-94
2022/08/09 00:04:24;;;;;;;2.80;2.50;;;;;;;;;;506742;29;1191;-94
2022/08/09 00:04:40;;;;;;;3.45;2.40;;;;;;;;;;506787;29;1212;-95
2022/08/09 00:04:55;;;;;;;3.37;2.27;;;;;;;;;;507050;29;1217;-93
2022/08/09 00:05:10;;;;;;;3.35;2.28;;;;;;;;;;504869;29;1256;-94
2022/08/09 00:05:26;;;;;;;3.73;2.50;;;;;;;;;;504677;29;1044;-93
2022/08/09 00:05:41;;;;;;;3.53;2.50;;;;;;;;;;502988;29;1242;-94
2022/08/09 00:05:57;;;;;;;3.60;2.40;;;;;;;;;;505044;29;1216;-94
2022/08/09 00:06:12;;;;;;;3.60;2.47;;;;;;;;;;508735;29;1179;-95
2022/08/09 00:06:28;;;;;;;3.07;2.57;;;;;;;;;;506809;29;1251;-94
2022/08/09 00:06:43;;;;;;;2.83;2.37;;;;;;;;;;504852;29;1066;-93
2022/08/09 00:06:59;;;;;;;4.30;2.35;;;;;;;;;;506719;29;1286;-93
2022/08/09 00:07:15;;;;;;;3.95;2.40;;;;;;;;;;508741;29;1274;-94
2022/08/09 00:07:30;;;;;;;2.80;2.38;;;;;;;;;;507008;29;1218;-93
2022/08/09 00:07:46;;;;;;;3.27;2.33;;;;;;;;;;503073;29;1319;-94
2022/08/09 00:08:02;;;;;;;4.00;2.50;;;;;;;;;;504924;29;1209;-94
2022/08/09 00:08:17;;;;;;;3.13;2.40;;;;;;;;;;506850;29;1199;-94
2022/08/09 00:08:32;;;;;;;2.90;2.38;;;;;;;;;;506737;29;1175;-93
2022/08/09 00:08:49;;;;;;;3.37;2.40;;;;;;;;;;505082;29;1219;-94
2022/08/09 00:09:04;;;;;;;3.33;2.30;;;;;;;;;;502856;29;1400;-94
2022/08/09 00:09:20;;;;;;;3.13;2.40;;;;;;;;;;503141;29;1028;-94
2022/08/09 00:09:35;;;;;;;3.77;2.30;;;;;;;;;;504855;29;1268;-94
2022/08/09 00:09:51;;;;;;;3.88;2.40;;;;;;;;;;505065;29;1179;-94
2022/08/09 00:10:06;;;;;;;3.53;2.50;;;;;;;;;;506925;29;1301;-93
2022/08/09 00:10:22;;;;;;;3.13;2.47;;;;;;;;;;506979;29;1329;-94
2022/08/09 00:10:38;;;;;;;2.90;2.30;;;;;;;;;;510527;29;1411;-93
2022/08/09 00:10:53;;;;;;;2.63;2.20;;;;;;;;;;510565;29;1302;-94
2022/08/09 00:11:09;;;;;;;2.95;2.20;;;;;;;;;;510778;29;1062;-94
2022/08/09 00:11:24;;;;;;;3.30;2.20;;;;;;;;;;506695;29;1272;-93
2022/08/09 00:11:40;;;;;;;3.38;2.30;;;;;;;;;;506740;29;1230;-93
2022/08/09 00:11:55;;;;;;;2.97;2.37;;;;;;;;;;504972;29;1309;-93
2022/08/09 00:12:11;;;;;;;3.60;2.35;;;;;;;;;;508914;29;1218;-94
2022/08/09 00:12:26;;;;;;;4.83;2.53;;;;;;;;;;506918;29;1250;-94
2022/08/09 00:12:42;;;;;;;4.60;2.53;;;;;;;;;;504814;29;1298;-93
2022/08/09 00:12:57;;;;;;;3.43;2.40;;;;;;;;;;506881;29;1263;-93
2022/08/09 00:13:14;;;;;;;3.60;2.42;;;;;;;;;;506957;29;1219;-94
2022/08/09 00:13:30;;;;;;;4.20;2.60;;;;;;;;;;509109;29;1297;-93
2022/08/09 00:13:45;;;;;;;3.90;2.33;;;;;;;;;;509269;29;1000;-94
2022/08/09 00:14:02;;;;;;;4.28;2.30;;;;;;;;;;509691;29;1262;-94
2022/08/09 00:14:17;;;;;;;3.83;2.30;;;;;;;;;;509171;29;1287;-94
2022/08/09 00:14:33;;;;;;;3.70;2.50;;;;;;;;;;509548;29;1223;-94
2022/08/09 00:14:49;;;;;;;3.70;2.40;;;;;;;;;;510774;29;1032;-94
2022/08/09 00:15:05;;;;;;;3.50;2.30;;;;;;;;;;507316;29;1262;-94
2022/08/09 00:15:21;;;;;;;3.28;2.40;;;;;;;;;;509464;29;1277;-92
2022/08/09 00:15:36;;;;;;;3.03;2.40;;;;;;;;;;509566;29;1111;-94
2022/08/09 00:15:52;;;;;;;3.50;2.40;;;;;;;;;;509438;29;1182;-93
2022/08/09 00:16:07;;;;;;;3.90;2.57;;;;;;;;;;510069;29;1196;-94
2022/08/09 00:16:23;;;;;;;4.23;2.47;;;;;;;;;;509595;29;1264;-93
2022/08/09 00:16:38;;;;;;;4.10;2.40;;;;;;;;;;507501;29;1246;-93
2022/08/09 00:16:53;;;;;;;3.37;2.37;;;;;;;;;;509689;29;1091;-93
2022/08/09 00:17:09;;;;;;;2.78;2.40;;;;;;;;;;506434;29;1263;-94
2022/08/09 00:17:24;;;;;;;3.00;2.43;;;;;;;;;;506001;29;1056;-93
2022/08/09 00:17:40;;;;;;;3.75;2.30;;;;;;;;;;508871;29;1532;-94
2022/08/09 00:17:55;;;;;;;4.00;2.20;;;;;;;;;;508895;29;1032;-93
2022/08/09 00:18:11;;;;;;;3.33;2.30;;;;;;;;;;509394;29;1277;-94
2022/08/09 00:18:26;;;;;;;3.40;2.40;;;;;;;;;;508833;29;1339;-94
2022/08/09 00:18:42;;;;;;;3.80;2.60;;;;;;;;;;509160;29;980;-94
2022/08/09 00:18:58;;;;;;;3.42;2.60;;;;;;;;;;507436;29;1268;-94
2022/08/09 00:19:14;;;;;;;2.88;2.33;;;;;;;;;;506940;29;1235;-94
2022/08/09 00:19:29;;;;;;;2.80;2.50;;;;;;;;;;504509;29;1190;-94
2022/08/09 00:19:45;;;;;;;3.07;2.63;;;;;;;;;;503223;29;1970;-94
2022/08/09 00:20:03;;;;;;;3.38;2.75;;;;;;;;;;502878;29;922;-93
2022/08/09 00:20:19;;;;;;;2.60;2.35;;;;;;;;;;506351;29;1303;-92
2022/08/09 00:20:34;;;;;;;3.20;2.25;;;;;;;;;;507579;29;1231;-91
2022/08/09 00:20:49;;;;;;;4.40;2.30;;;;;;;;;;506575;29;1272;-92
2022/08/09 00:21:06;;;;;;;3.70;2.17;;;;;;;;;;508515;29;1291;-92
2022/08/09 00:21:22;;;;;;;3.72;2.38;;;;;;;;;;507511;29;1412;-92
2022/08/09 00:21:38;;;;;;;4.15;2.45;;;;;;;;;;507708;29;1341;-92
2022/08/09 00:21:53;;;;;;;2.80;2.40;;;;;;;;;;508428;29;1228;-91
2022/08/09 00:22:09;;;;;;;2.77;2.40;;;;;;;;;;507622;29;1328;-91
2022/08/09 00:22:24;;;;;;;3.28;2.50;;;;;;;;;;509800;29;1392;-91
2022/08/09 00:22:40;;;;;;;3.10;2.37;;;;;;;;;;509881;29;1365;-91
2022/08/09 00:22:55;;;;;;;3.50;2.30;;;;;;;;;;511487;29;1278;-92
2022/08/09 00:23:11;;;;;;;4.30;2.50;;;;;;;;;;509709;29;1293;-91
2022/08/09 00:23:26;;;;;;;4.10;2.50;;;;;;;;;;509750;29;1345;-92
2022/08/09 00:23:42;;;;;;;3.90;2.33;;;;;;;;;;508449;29;1544;-91
2022/08/09 00:23:57;;;;;;;3.13;2.30;;;;;;;;;;509665;29;1357;-92
2022/08/09 00:24:13;;;;;;;2.50;2.30;;;;;;;;;;507637;29;1370;-91
2022/08/09 00:24:30;;;;;;;2.85;2.38;;;;;;;;;;509500;29;909;-91
2022/08/09 00:24:46;;;;;;;3.00;2.40;;;;;;;;;;511481;29;1367;-92
2022/08/09 00:25:01;;;;;;;2.70;2.22;;;;;;;;;;509169;29;1317;-91
2022/08/09 00:25:17;;;;;;;3.27;2.33;;;;;;;;;;509854;29;1296;-92
2022/08/09 00:25:32;;;;;;;3.63;2.40;;;;;;;;;;509235;29;1228;-91
2022/08/09 00:25:47;;;;;;;2.90;2.28;;;;;;;;;;506606;29;1535;-92
2022/08/09 00:26:07;;;;;;;2.40;2.20;;;;;;;;;;506750;29;1428;-92
2022/08/09 00:26:26;;;;;;;3.17;2.38;;;;;;;;;;509059;29;1322;-91
2022/08/09 00:26:41;;;;;;;3.20;2.50;;;;;;;;;;511527;29;1393;-92
2022/08/09 00:26:58;;;;;;;3.15;2.47;;;;;;;;;;511132;29;1301;-91
2022/08/09 00:27:13;;;;;;;3.25;2.50;;;;;;;;;;509524;29;1314;-92
2022/08/09 00:27:28;;;;;;;2.95;2.60;;;;;;;;;;507766;29;1138;-91
2022/08/09 00:27:44;;;;;;;3.57;2.50;;;;;;;;;;507354;29;1208;-91
2022/08/09 00:27:59;;;;;;;3.83;2.40;;;;;;;;;;506997;29;1317;-91
2022/08/09 00:28:15;;;;;;;3.63;2.60;;;;;;;;;;508333;29;1612;-92
2022/08/09 00:28:30;;;;;;;2.97;2.60;;;;;;;;;;506025;29;1288;-91
2022/08/09 00:28:46;;;;;;;2.80;2.50;;;;;;;;;;509662;29;1171;-92
2022/08/09 00:29:02;;;;;;;3.00;2.50;;;;;;;;;;507786;29;1296;-91
2022/08/09 00:29:17;;;;;;;3.33;2.40;;;;;;;;;;508859;29;1511;-91
2022/08/09 00:29:33;;;;;;;3.47;2.37;;;;;;;;;;509246;29;1107;-91
2022/08/09 00:29:48;;;;;;;3.70;2.45;;;;;;;;;;507942;29;1154;-92
2022/08/09 00:30:04;;;;;;;4.20;2.47;;;;;;;;;;507694;29;1325;-92
2022/08/09 00:30:20;;;;;;;3.22;2.50;;;;;;;;;;506402;29;1313;-92
2022/08/09 00:30:35;;;;;;;3.25;2.50;;;;;;;;;;506391;29;1035;-92
2022/08/09 00:30:51;;;;;;;3.00;2.33;;;;;;;;;;509638;29;1058;-92
2022/08/09 00:31:07;;;;;;;3.13;2.33;;;;;;;;;;508327;29;1585;-92
2022/08/09 00:31:23;;;;;;;3.90;2.60;;;;;;;;;;507273;29;970;-91
2022/08/09 00:31:39;;;;;;;3.22;2.60;;;;;;;;;;509495;29;1436;-92
2022/08/09 00:31:54;;;;;;;2.80;2.50;;;;;;;;;;507850;29;1134;-91
2022/08/09 00:32:09;;;;;;;2.65;2.40;;;;;;;;;;509207;29;1312;-91
2022/08/09 00:32:25;;;;;;;3.17;2.37;;;;;;;;;;510796;29;932;-91
2022/08/09 00:32:40;;;;;;;3.47;2.50;;;;;;;;;;511458;29;1004;-92
2022/08/09 00:32:55;;;;;;;2.80;2.50;;;;;;;;;;511272;29;1205;-91
2022/08/09 00:33:11;;;;;;;3.40;2.40;;;;;;;;;;511376;29;1205;-92
2022/08/09 00:33:26;;;;;;;4.10;2.53;;;;;;;;;;509483;29;1175;-91
2022/08/09 00:33:42;;;;;;;3.35;2.65;;;;;;;;;;508071;29;1195;-92
2022/08/09 00:33:57;;;;;;;3.25;2.70;;;;;;;;;;508188;29;1337;-91
2022/08/09 00:34:13;;;;;;;3.23;2.60;;;;;;;;;;507785;29;912;-91
2022/08/09 00:34:28;;;;;;;3.50;2.43;;;;;;;;;;505556;29;1209;-91
2022/08/09 00:34:44;;;;;;;3.53;2.58;;;;;;;;;;506644;29;1288;-90
2022/08/09 00:34:59;;;;;;;3.87;2.80;;;;;;;;;;511396;29;1250;-91
2022/08/09 00:35:14;;;;;;;3.75;2.50;;;;;;;;;;511452;29;1344;-92
2022/08/09 00:35:30;;;;;;;3.20;2.30;;;;;;;;;;509563;29;1215;-91
2022/08/09 00:35:46;;;;;;;4.33;2.57;;;;;;;;;;507671;29;1280;-90
2022/08/09 00:36:02;;;;;;;3.70;2.50;;;;;;;;;;507503;29;1255;-92
2022/08/09 00:36:19;;;;;;;2.63;2.42;;;;;;;;;;508136;29;1383;-91
2022/08/09 00:36:34;;;;;;;2.92;2.50;;;;;;;;;;511332;29;1355;-91
2022/08/09 00:36:49;;;;;;;3.33;2.47;;;;;;;;;;511872;29;790;-91
2022/08/09 00:37:06;;;;;;;3.25;2.50;;;;;;;;;;509449;29;1294;-92
2022/08/09 00:37:21;;;;;;;3.00;2.40;;;;;;;;;;511592;29;1374;-92
2022/08/09 00:37:36;;;;;;;3.57;2.37;;;;;;;;;;511387;29;1175;-92
2022/08/09 00:37:52;;;;;;;3.30;2.50;;;;;;;;;;509613;29;1291;-92
2022/08/09 00:38:11;;;;;;;4.20;2.60;;;;;;;;;;507775;29;1187;-91
2022/08/09 00:38:26;;;;;;;4.30;2.60;;;;;;;;;;507188;29;1325;-92
2022/08/09 00:38:42;;;;;;;2.92;2.63;;;;;;;;;;507524;29;1368;-92
2022/08/09 00:38:58;;;;;;;2.83;2.60;;;;;;;;;;508044;29;1450;-91
2022/08/09 00:39:13;;;;;;;2.80;2.50;;;;;;;;;;509725;29;1222;-92
2022/08/09 00:39:29;;;;;;;3.10;2.35;;;;;;;;;;508500;29;1283;-91
2022/08/09 00:39:44;;;;;;;3.17;2.40;;;;;;;;;;510845;29;1891;-91
2022/08/09 00:39:59;;;;;;;3.17;2.50;;;;;;;;;;509478;29;1199;-92
2022/08/09 00:40:15;;;;;;;3.40;2.40;;;;;;;;;;509596;29;1174;-92
2022/08/09 00:40:30;;;;;;;3.33;2.30;;;;;;;;;;508486;29;1205;-92
2022/08/09 00:40:46;;;;;;;3.40;2.45;;;;;;;;;;508155;29;1047;-92
2022/08/09 00:41:02;;;;;;;3.97;2.63;;;;;;;;;;505538;29;1299;-92
2022/08/09 00:41:21;;;;;;;3.90;2.47;;;;;;;;;;507470;29;1443;-92
2022/08/09 00:41:37;;;;;;;3.53;2.45;;;;;;;;;;508208;29;1458;-92
2022/08/09 00:41:52;;;;;;;3.10;2.47;;;;;;;;;;505848;29;1265;-91
2022/08/09 00:42:08;;;;;;;3.30;2.50;;;;;;;;;;507075;29;1313;-92
2022/08/09 00:42:23;;;;;;;3.67;2.40;;;;;;;;;;505914;29;1305;-91
2022/08/09 00:42:39;;;;;;;4.03;2.37;;;;;;;;;;505896;29;870;-92
2022/08/09 00:42:54;;;;;;;4.10;2.30;;;;;;;;;;506635;29;1194;-91
2022/08/09 00:43:09;;;;;;;3.10;2.33;;;;;;;;;;509642;29;1215;-92
2022/08/09 00:43:25;;;;;;;3.07;2.50;;;;;;;;;;507613;29;1373;-91
2022/08/09 00:43:41;;;;;;;3.55;2.58;;;;;;;;;;509503;29;1314;-91
2022/08/09 00:43:57;;;;;;;3.72;2.40;;;;;;;;;;508959;29;1289;-92
2022/08/09 00:44:12;;;;;;;2.77;2.30;;;;;;;;;;508493;29;842;-91
2022/08/09 00:44:28;;;;;;;2.50;2.30;;;;;;;;;;509669;29;1283;-91
2022/08/09 00:44:43;;;;;;;2.60;2.40;;;;;;;;;;510080;29;1298;-92
2022/08/09 00:44:59;;;;;;;2.80;2.50;;;;;;;;;;510882;29;1214;-91
2022/08/09 00:45:14;;;;;;;2.92;2.50;;;;;;;;;;507553;29;1184;-92
2022/08/09 00:45:30;;;;;;;3.13;2.50;;;;;;;;;;509132;29;1267;-92
2022/08/09 00:45:45;;;;;;;3.75;2.42;;;;;;;;;;509657;29;1008;-91
2022/08/09 00:46:01;;;;;;;4.00;2.40;;;;;;;;;;509427;29;1183;-92
2022/08/09 00:46:17;;;;;;;3.35;2.40;;;;;;;;;;508072;29;1317;-92
2022/08/09 00:46:33;;;;;;;3.20;2.60;;;;;;;;;;505409;29;1232;-91
2022/08/09 00:46:48;;;;;;;3.30;2.70;;;;;;;;;;506120;29;1220;-91
2022/08/09 00:47:04;;;;;;;3.37;2.60;;;;;;;;;;505260;29;1584;-92
2022/08/09 00:47:20;;;;;;;3.53;2.67;;;;;;;;;;507756;29;1362;-91
2022/08/09 00:47:36;;;;;;;4.15;2.65;;;;;;;;;;507445;29;1418;-92
2022/08/09 00:47:51;;;;;;;3.92;2.50;;;;;;;;;;507260;29;974;-92
2022/08/09 00:48:06;;;;;;;3.57;2.50;;;;;;;;;;504178;29;1148;-91
2022/08/09 00:48:22;;;;;;;3.47;2.60;;;;;;;;;;506945;29;1216;-91
2022/08/09 00:48:37;;;;;;;3.00;2.60;;;;;;;;;;506750;29;1267;-92
2022/08/09 00:48:53;;;;;;;3.27;2.53;;;;;;;;;;507211;29;1148;-91
2022/08/09 00:49:09;;;;;;;3.25;2.60;;;;;;;;;;507991;29;1177;-92
2022/08/09 00:49:25;;;;;;;3.33;2.47;;;;;;;;;;509487;29;1479;-91
2022/08/09 00:49:40;;;;;;;3.45;2.30;;;;;;;;;;510875;29;1221;-92
2022/08/09 00:49:55;;;;;;;4.07;2.67;;;;;;;;;;507561;29;1189;-91
2022/08/09 00:50:11;;;;;;;4.43;2.83;;;;;;;;;;507485;29;1091;-91
2022/08/09 00:50:26;;;;;;;3.42;2.70;;;;;;;;;;507254;29;853;-91
2022/08/09 00:50:42;;;;;;;3.53;2.70;;;;;;;;;;507360;29;1338;-92
2022/08/09 00:51:02;;;;;;;4.35;2.80;;;;;;;;;;507228;29;1330;-91
2022/08/09 00:51:17;;;;;;;3.83;2.67;;;;;;;;;;506618;29;1293;-92
2022/08/09 00:51:32;;;;;;;3.05;2.47;;;;;;;;;;505599;29;1195;-91
2022/08/09 00:51:48;;;;;;;3.27;2.60;;;;;;;;;;506259;29;1345;-92
2022/08/09 00:52:04;;;;;;;3.35;2.80;;;;;;;;;;505785;29;1330;-91
2022/08/09 00:52:21;;;;;;;3.53;2.90;;;;;;;;;;509381;29;1432;-91
2022/08/09 00:52:37;;;;;;;3.42;2.88;;;;;;;;;;509557;29;861;-92
2022/08/09 00:52:52;;;;;;;3.20;2.70;;;;;;;;;;507274;29;1041;-92
2022/08/09 00:53:09;;;;;;;3.10;2.55;;;;;;;;;;508221;29;1235;-92
2022/08/09 00:53:25;;;;;;;3.10;2.50;;;;;;;;;;507380;29;1267;-90
2022/08/09 00:53:40;;;;;;;3.47;2.72;;;;;;;;;;507284;29;1288;-91
2022/08/09 00:53:56;;;;;;;4.60;2.63;;;;;;;;;;507172;29;1349;-92
2022/08/09 00:54:11;;;;;;;4.00;2.40;;;;;;;;;;505433;29;1190;-91
2022/08/09 00:54:27;;;;;;;2.88;2.40;;;;;;;;;;503315;29;1309;-91
2022/08/09 00:54:43;;;;;;;3.08;2.40;;;;;;;;;;505807;29;1705;-91
2022/08/09 00:55:00;;;;;;;3.22;2.50;;;;;;;;;;503602;29;878;-91
2022/08/09 00:55:15;;;;;;;3.85;2.63;;;;;;;;;;501982;29;1308;-92
2022/08/09 00:55:30;;;;;;;3.53;2.63;;;;;;;;;;503128;29;1511;-91
2022/08/09 00:55:46;;;;;;;3.00;2.60;;;;;;;;;;507187;29;1272;-92
2022/08/09 00:56:03;;;;;;;3.03;2.53;;;;;;;;;;509145;29;1155;-91
2022/08/09 00:56:19;;;;;;;3.35;2.60;;;;;;;;;;509259;29;1391;-90
2022/08/09 00:56:34;;;;;;;3.30;2.60;;;;;;;;;;508907;29;1227;-91
2022/08/09 00:56:49;;;;;;;3.90;2.50;;;;;;;;;;509435;29;1216;-91
2022/08/09 00:57:05;;;;;;;4.17;2.53;;;;;;;;;;509068;29;1390;-91
2022/08/09 00:57:21;;;;;;;3.90;2.42;;;;;;;;;;511813;29;1226;-91
2022/08/09 00:57:36;;;;;;;4.37;2.43;;;;;;;;;;510633;29;1187;-91
2022/08/09 00:57:51;;;;;;;3.50;2.50;;;;;;;;;;509504;29;1259;-91
2022/08/09 00:58:07;;;;;;;2.90;2.50;;;;;;;;;;507170;29;1203;-92
2022/08/09 00:58:22;;;;;;;3.63;2.57;;;;;;;;;;507156;29;1283;-91
2022/08/09 00:58:38;;;;;;;3.40;2.50;;;;;;;;;;505717;29;1644;-91
2022/08/09 00:58:53;;;;;;;2.80;2.50;;;;;;;;;;507547;29;996;-92
2022/08/09 00:59:09;;;;;;;3.20;2.50;;;;;;;;;;507627;29;1323;-92
2022/08/09 00:59:24;;;;;;;4.47;2.53;;;;;;;;;;509219;29;1255;-91
2022/08/09 00:59:42;;;;;;;4.35;2.67;;;;;;;;;;507359;29;1903;-92
2022/08/09 00:59:58;;;;;;;3.38;2.55;;;;;;;;;;505896;29;1220;-92
2022/08/09 01:00:14;;;;;;;3.63;2.60;;;;;;;;;;507354;29;1180;-92
2022/08/09 01:00:30;;;;;;;3.35;2.63;;;;;;;;;;509216;29;1250;-91
2022/08/09 01:00:49;;;;;;;3.17;2.63;;;;;;;;;;505369;29;1213;-91
2022/08/09 01:01:11;;;;;;;2.90;2.47;;;;;;;;;;505095;29;973;-92
2022/08/09 01:01:36;;;;;;;2.90;2.58;;;;;;;;;;507224;29;1489;-91
2022/08/09 01:01:51;;;;;;;3.55;2.63;;;;;;;;;;507382;29;1294;-91
2022/08/09 01:02:08;;;;;;;3.10;2.50;;;;;;;;;;508710;29;1427;-92
2022/08/09 01:02:28;;;;;;;2.63;2.42;;;;;;;;;;506861;29;1235;-91
2022/08/09 01:02:54;;;;;;;2.65;2.45;;;;;;;;;;510673;29;1526;-91
2022/08/09 01:03:23;;;;;;;3.28;2.70;;;;;;;;;;509231;29;1323;-91
2022/08/09 01:03:45;;;;;;;3.53;2.78;;;;;;;;;;507044;29;1373;-92
2022/08/09 01:04:10;;;;;;;4.53;2.75;;;;;;;;;;507011;29;1504;-91
2022/08/09 01:04:47;;;;;;;3.90;2.70;;;;;;;;;;511179;29;1261;-92
2022/08/09 01:05:04;;;;;;;3.28;2.67;;;;;;;;;;509641;29;1562;-91
2022/08/09 01:06:00;;;;;;;3.17;2.58;;;;;;;;;;511474;29;1416;-92
2022/08/09 01:06:27;;;;;;;3.47;2.60;;;;;;;;;;512646;29;1223;-91
2022/08/09 01:06:51;;;;;;;4.57;2.67;;;;;;;;;;511141;28;1351;-91
2022/08/09 01:07:38;;;;;;;3.35;2.60;;;;;;;;;;512752;29;1439;-91
2022/08/09 01:08:08;;;;;;;4.18;2.78;;;;;;;;;;507618;29;1250;-91
2022/08/09 01:08:50;;;;;;;5.15;2.78;;;;;;;;;;509336;29;965;-89
2022/08/09 01:09:29;;;;;;;3.95;2.67;;;;;;;;;;511608;29;1342;-91
2022/08/09 01:09:58;;;;;;;4.07;2.85;;;;;;;;;;509155;29;1321;-91
2022/08/09 01:10:25;;;;;;;3.17;2.60;;;;;;;;;;511428;29;1240;-92
2022/08/09 01:11:13;;;;;;;3.90;2.67;;;;;;;;;;505705;29;1327;-92
2022/08/09 01:11:35;;;;;;;3.30;2.67;;;;;;;;;;499727;29;1292;-91
2022/08/09 01:11:59;;;;;;;3.28;2.60;;;;;;;;;;503498;29;1249;-91
2022/08/09 01:12:54;;;;;;;3.35;2.60;;;;;;;;;;506244;29;1278;-91
2022/08/09 01:13:16;;;;;;;5.05;2.70;;;;;;;;;;507045;29;1359;-91
2022/08/09 01:13:54;;;;;;;4.18;2.72;;;;;;;;;;507147;29;1195;-91
2022/08/09 01:14:25;;;;;;;3.13;2.50;;;;;;;;;;505921;29;1393;-91
2022/08/09 01:15:03;;;;;;;2.85;2.50;;;;;;;;;;507508;29;1192;-92
2022/08/09 01:15:23;;;;;;;3.20;2.50;;;;;;;;;;506178;29;1424;-92
2022/08/09 01:15:44;;;;;;;3.75;2.42;;;;;;;;;;510174;29;1264;-91
2022/08/09 01:16:01;;;;;;;4.18;2.50;;;;;;;;;;509248;29;1558;-92
2022/08/09 01:16:22;;;;;;;3.55;2.58;;;;;;;;;;507362;29;1389;-92
2022/08/09 01:16:43;;;;;;;3.67;2.47;;;;;;;;;;505620;29;1439;-91
2022/08/09 01:17:07;;;;;;;3.72;2.70;;;;;;;;;;505445;29;1278;-92
2022/08/09 01:17:34;;;;;;;4.45;2.60;;;;;;;;;;507148;29;1477;-92
2022/08/09 01:17:57;;;;;;;2.80;2.53;;;;;;;;;;505493;29;1381;-91
2022/08/09 01:18:17;;;;;;;2.92;2.50;;;;;;;;;;507361;29;1325;-92
2022/08/09 01:18:33;;;;;;;3.22;2.53;;;;;;;;;;507628;29;1328;-91
2022/08/09 01:18:51;;;;;;;3.30;2.60;;;;;;;;;;507713;29;1557;-91
2022/08/09 01:19:22;;;;;;;3.00;2.70;;;;;;;;;;509351;29;1225;-90
2022/08/09 01:19:58;;;;;;;3.30;2.47;;;;;;;;;;509869;29;1910;-91
2022/08/09 01:20:28;;;;;;;3.42;2.67;;;;;;;;;;511384;29;1211;-92
2022/08/09 01:21:05;;;;;;;4.28;2.70;;;;;;;;;;511834;29;1452;-91
2022/08/09 01:21:44;;;;;;;3.03;2.60;;;;;;;;;;511310;29;1071;-91
2022/08/09 01:22:34;;;;;;;3.22;2.53;;;;;;;;;;509442;29;1361;-91
2022/08/09 01:23:22;;;;;;;3.10;2.20;;;;;;;;;;509726;29;1506;-91
2022/08/09 01:23:56;;;;;;;2.90;2.40;;;;;;;;;;505291;29;1220;-91
2022/08/09 01:24:33;;;;;;;2.67;2.40;;;;;;;;;;505590;29;1340;-92
2022/08/09 01:25:10;;;;;;;3.55;2.60;;;;;;;;;;505271;29;1276;-91
2022/08/09 01:25:56;;;;;;;4.95;2.40;;;;;;;;;;506078;29;1459;-91
2022/08/09 01:26:34;;;;;;;3.80;2.47;;;;;;;;;;505679;29;1345;-92
2022/08/09 01:26:59;;;;;;;3.60;2.53;;;;;;;;;;505637;29;1372;-92
2022/08/09 01:27:16;;;;;;;2.90;2.40;;;;;;;;;;507607;29;1311;-91
2022/08/09 01:27:32;;;;;;;2.97;2.40;;;;;;;;;;508059;29;1520;-91
2022/08/09 01:27:51;;;;;;;3.30;2.50;;;;;;;;;;507394;29;1250;-91
2022/08/09 01:28:08;;;;;;;3.65;2.55;;;;;;;;;;506656;29;1449;-92
2022/08/09 01:28:25;;;;;;;3.70;2.50;;;;;;;;;;507906;29;1348;-91
2022/08/09 01:28:44;;;;;;;3.80;2.58;;;;;;;;;;507722;29;1598;-92
2022/08/09 01:29:02;;;;;;;3.70;2.50;;;;;;;;;;507873;29;878;-92
2022/08/09 01:29:25;;;;;;;2.88;2.40;;;;;;;;;;505685;29;1321;-92
2022/08/09 01:29:48;;;;;;;2.80;2.50;;;;;;;;;;507620;29;1283;-91
2022/08/09 01:30:07;;;;;;;2.83;2.50;;;;;;;;;;509519;29;1242;-91
2022/08/09 01:30:25;;;;;;;3.45;2.50;;;;;;;;;;510690;29;1265;-92
2022/08/09 01:30:42;;;;;;;3.97;2.58;;;;;;;;;;511154;29;1381;-91
2022/08/09 01:31:02;;;;;;;3.30;2.50;;;;;;;;;;508306;29;1358;-91
2022/08/09 01:31:21;;;;;;;2.78;2.50;;;;;;;;;;508474;29;1383;-91
2022/08/09 01:31:38;;;;;;;2.80;2.50;;;;;;;;;;509475;29;1393;-91
2022/08/09 01:31:57;;;;;;;2.60;2.30;;;;;;;;;;507169;29;1286;-90
2022/08/09 01:32:15;;;;;;;2.63;2.20;;;;;;;;;;505094;29;1227;-92
2022/08/09 01:32:37;;;;;;;2.90;2.60;;;;;;;;;;505107;29;1371;-91
2022/08/09 01:32:55;;;;;;;2.78;2.50;;;;;;;;;;508899;29;1297;-91
2022/08/09 01:33:13;;;;;;;3.47;2.60;;;;;;;;;;509459;29;1029;-92
2022/08/09 01:33:36;;;;;;;4.10;2.60;;;;;;;;;;508331;29;1389;-91
2022/08/09 01:33:53;;;;;;;4.40;2.72;;;;;;;;;;505640;29;1282;-91
2022/08/09 01:34:11;;;;;;;4.18;2.80;;;;;;;;;;506569;29;1234;-92
2022/08/09 01:34:30;;;;;;;4.43;2.60;;;;;;;;;;506353;29;1458;-91
2022/08/09 01:34:47;;;;;;;3.38;2.42;;;;;;;;;;506201;29;1230;-91
2022/08/09 01:35:08;;;;;;;3.03;2.38;;;;;;;;;;505419;29;1464;-92
2022/08/09 01:35:27;;;;;;;3.67;2.70;;;;;;;;;;505431;29;1246;-92
2022/08/09 01:35:51;;;;;;;4.45;2.83;;;;;;;;;;506360;29;1033;-92
2022/08/09 01:36:11;;;;;;;3.70;2.63;;;;;;;;;;508617;29;1230;-91
2022/08/09 01:36:29;;;;;;;2.90;2.65;;;;;;;;;;509705;29;1626;-91
2022/08/09 01:36:46;;;;;;;3.00;2.70;;;;;;;;;;506115;29;1407;-91
2022/08/09 01:37:06;;;;;;;3.00;2.53;;;;;;;;;;505968;29;1443;-92
2022/08/09 01:37:23;;;;;;;3.05;2.53;;;;;;;;;;503869;29;1259;-91
2022/08/09 01:37:40;;;;;;;3.35;2.60;;;;;;;;;;503655;29;1352;-91
2022/08/09 01:37:59;;;;;;;3.30;2.65;;;;;;;;;;507451;29;1244;-92
2022/08/09 01:38:20;;;;;;;2.85;2.53;;;;;;;;;;505697;29;1839;-91
2022/08/09 01:38:39;;;;;;;3.30;2.50;;;;;;;;;;508062;29;1344;-92
2022/08/09 01:38:55;;;;;;;2.97;2.60;;;;;;;;;;509496;29;822;-92
2022/08/09 01:39:13;;;;;;;2.80;2.50;;;;;;;;;;509980;29;1262;-91
2022/08/09 01:39:33;;;;;;;2.97;2.35;;;;;;;;;;509492;29;1218;-92
2022/08/09 01:39:52;;;;;;;3.33;2.42;;;;;;;;;;510263;29;1907;-91
2022/08/09 01:40:08;;;;;;;3.53;2.55;;;;;;;;;;509424;29;1227;-91
2022/08/09 01:40:26;;;;;;;3.58;2.75;;;;;;;;;;507450;29;1266;-91
2022/08/09 01:41:08;;;;;;;3.60;2.78;;;;;;;;;;505613;29;1227;-91
2022/08/09 01:41:28;;;;;;;3.33;2.53;;;;;;;;;;501065;29;1272;-90
2022/08/09 01:41:45;;;;;;;3.75;2.47;;;;;;;;;;506088;29;1334;-92
2022/08/09 01:42:06;;;;;;;3.85;2.60;;;;;;;;;;506645;29;1332;-92
2022/08/09 01:42:22;;;;;;;4.85;2.83;;;;;;;;;;507739;29;1286;-91
2022/08/09 01:42:38;;;;;;;4.25;3.00;;;;;;;;;;508750;29;1151;-92
2022/08/09 01:42:55;;;;;;;4.07;3.00;;;;;;;;;;509641;29;1490;-91
2022/08/09 01:43:12;;;;;;;4.68;2.95;;;;;;;;;;509559;29;1219;-91
2022/08/09 01:43:28;;;;;;;3.63;2.72;;;;;;;;;;509607;29;1344;-91
2022/08/09 01:43:48;;;;;;;2.97;2.47;;;;;;;;;;509569;29;1175;-92
2022/08/09 01:44:05;;;;;;;3.58;2.60;;;;;;;;;;509774;29;1472;-92
2022/08/09 01:44:22;;;;;;;3.90;2.80;;;;;;;;;;511979;29;1435;-92
2022/08/09 01:44:40;;;;;;;4.10;2.90;;;;;;;;;;508243;29;1637;-91
2022/08/09 01:44:56;;;;;;;3.55;2.80;;;;;;;;;;507406;29;1489;-91
2022/08/09 01:45:12;;;;;;;3.90;2.67;;;;;;;;;;507557;29;1331;-91
2022/08/09 01:45:29;;;;;;;3.75;2.50;;;;;;;;;;505572;29;1301;-91
2022/08/09 01:45:46;;;;;;;3.80;2.60;;;;;;;;;;505766;29;1352;-92
2022/08/09 01:46:02;;;;;;;3.70;2.60;;;;;;;;;;503312;29;1275;-91
2022/08/09 01:46:28;;;;;;;3.80;2.70;;;;;;;;;;506353;29;1553;-91
2022/08/09 01:46:45;;;;;;;4.22;2.60;;;;;;;;;;503959;29;1400;-92
2022/08/09 01:47:03;;;;;;;4.57;2.63;;;;;;;;;;506447;29;934;-91
2022/08/09 01:47:20;;;;;;;4.15;2.58;;;;;;;;;;506849;29;1251;-92
2022/08/09 01:47:37;;;;;;;5.10;2.67;;;;;;;;;;505768;29;1342;-91
2022/08/09 01:47:53;;;;;;;4.20;2.80;;;;;;;;;;505669;29;1329;-92
2022/08/09 01:48:10;;;;;;;3.38;2.80;;;;;;;;;;504965;29;1090;-92
2022/08/09 01:48:26;;;;;;;3.40;2.55;;;;;;;;;;503667;29;1454;-91
2022/08/09 01:48:43;;;;;;;3.65;2.58;;;;;;;;;;503791;29;917;-91
2022/08/09 01:49:10;;;;;;;3.05;2.65;;;;;;;;;;503761;29;1414;-92
2022/08/09 01:49:27;;;;;;;2.78;2.50;;;;;;;;;;504042;29;1049;-92
2022/08/09 01:49:46;;;;;;;2.88;2.60;;;;;;;;;;504955;29;1208;-92
2022/08/09 01:50:03;;;;;;;3.15;2.85;;;;;;;;;;505837;29;1290;-91
2022/08/09 01:50:22;;;;;;;3.25;2.88;;;;;;;;;;508532;29;977;-92
2022/08/09 01:50:39;;;;;;;7.03;3.00;;;;;;;;;;507489;29;1371;-91
2022/08/09 01:50:56;;;;;;;7.38;2.97;;;;;;;;;;506443;29;1309;-91
2022/08/09 01:51:14;;;;;;;3.10;2.50;;;;;;;;;;507257;29;1326;-91
2022/08/09 01:51:31;;;;;;;3.08;2.65;;;;;;;;;;506757;29;1164;-92
2022/08/09 01:51:53;;;;;;;4.07;2.90;;;;;;;;;;509322;29;1378;-92
2022/08/09 01:52:12;;;;;;;3.30;2.78;;;;;;;;;;508076;29;1372;-92
2022/08/09 01:52:28;;;;;;;3.10;2.65;;;;;;;;;;506036;29;1308;-92
2022/08/09 01:52:45;;;;;;;3.28;2.70;;;;;;;;;;505345;29;1250;-91
2022/08/09 01:53:02;;;;;;;3.08;2.67;;;;;;;;;;503476;29;1428;-92
2022/08/09 01:53:21;;;;;;;3.35;2.70;;;;;;;;;;503714;29;1390;-92
2022/08/09 01:53:37;;;;;;;3.80;2.80;;;;;;;;;;505446;29;1302;-91
2022/08/09 01:53:55;;;;;;;3.17;2.80;;;;;;;;;;505516;29;1339;-91
2022/08/09 01:54:13;;;;;;;3.22;2.78;;;;;;;;;;506922;29;1242;-92